Time;durP1;ratioP1;P1;durP2;ratioP2;P2;SDS_P1;SDS_P2;PMS_P1;PMS_P2;Temp;Humidity;BMP_temperature;BMP_pressure;BME280_temperature;BME280_humidity;BME280_pressure;Samples;Min_cycle;Max_cycle;Signal;HPM_P1;HPM_P2
2024/03/04 00:00:06;;;;;;;29.20;17.30;;;;;;;5.45;77.38;100968.38;104913;1257;139572;-69
2024/03/04 00:02:33;;;;;;;32.40;18.30;;;;;;;5.37;77.52;100965.40;107004;1254;75943;-69
2024/03/04 00:05:00;;;;;;;33.00;18.40;;;;;;;5.31;77.63;100968.23;105017;1256;67148;-69
2024/03/04 00:07:27;;;;;;;35.40;19.20;;;;;;;5.24;77.73;100960.23;104823;1254;138482;-69
2024/03/04 00:09:54;;;;;;;29.30;19.40;;;;;;;5.18;77.80;100963.05;105053;1253;61357;-69
2024/03/04 00:12:20;;;;;;;28.60;19.20;;;;;;;5.11;77.88;100962.39;104886;1256;139177;-71
2024/03/04 00:14:47;;;;;;;28.90;19.30;;;;;;;5.05;78.04;100955.32;104985;1254;75225;-70
2024/03/04 00:17:14;;;;;;;31.40;18.70;;;;;;;5.00;78.14;100956.44;105001;1257;67446;-69
2024/03/04 00:19:41;;;;;;;27.70;17.20;;;;;;;4.96;78.24;100956.55;104902;1255;138502;-70
2024/03/04 00:22:09;;;;;;;27.40;17.80;;;;;;;4.92;78.23;100962.81;105143;1256;61299;-70
2024/03/04 00:24:36;;;;;;;26.50;17.10;;;;;;;4.88;78.43;100963.81;105069;1254;138785;-68
2024/03/04 00:27:03;;;;;;;28.20;17.10;;;;;;;4.85;78.44;100963.81;105143;1259;74297;-70
2024/03/04 00:29:30;;;;;;;27.50;17.00;;;;;;;4.80;78.57;100965.00;105012;1258;67001;-70
2024/03/04 00:31:57;;;;;;;26.70;17.20;;;;;;;4.77;78.74;100963.63;105071;1258;139150;-68
2024/03/04 00:34:24;;;;;;;26.00;16.20;;;;;;;4.75;78.73;100966.42;105064;1258;61231;-69
2024/03/04 00:36:51;;;;;;;24.70;17.40;;;;;;;4.72;78.88;100967.84;104952;1257;138952;-71
2024/03/04 00:39:17;;;;;;;26.40;16.70;;;;;;;4.70;78.99;100968.09;105057;1258;75611;-72
2024/03/04 00:41:44;;;;;;;25.00;16.70;;;;;;;4.71;79.23;100969.36;104932;1258;66699;-72
2024/03/04 00:44:11;;;;;;;27.20;17.70;;;;;;;4.76;79.49;100976.24;104885;1257;138570;-70
2024/03/04 00:46:43;;;;;;;28.90;17.90;;;;;;;4.84;79.60;100973.55;109126;1254;58964;-72
2024/03/04 00:49:10;;;;;;;25.90;17.00;;;;;;;4.94;79.68;100972.98;108757;1256;138714;-70
2024/03/04 00:51:37;;;;;;;27.10;16.80;;;;;;;5.02;79.76;100971.50;104976;1256;74064;-70
2024/03/04 00:54:05;;;;;;;30.50;17.20;;;;;;;5.10;79.75;100968.77;104957;1256;139255;-71
2024/03/04 00:56:31;;;;;;;25.70;16.50;;;;;;;5.19;79.78;100965.88;106128;1254;72767;-70
2024/03/04 00:58:58;;;;;;;24.90;16.30;;;;;;;5.27;79.69;100966.45;104923;1256;61291;-71
2024/03/04 01:01:25;;;;;;;29.20;17.10;;;;;;;5.34;79.73;100968.58;106019;1256;138714;-70
2024/03/04 01:03:53;;;;;;;24.00;16.80;;;;;;;5.39;79.59;100967.77;104814;1256;75243;-70
2024/03/04 01:06:20;;;;;;;24.50;16.30;;;;;;;5.46;79.68;100967.91;106714;1257;139344;-69
2024/03/04 01:08:47;;;;;;;24.60;17.60;;;;;;;5.52;79.56;100970.48;105950;1255;73001;-70
2024/03/04 01:11:14;;;;;;;30.20;17.40;;;;;;;5.57;79.50;100972.48;104923;1257;61230;-70
2024/03/04 01:13:40;;;;;;;27.70;18.00;;;;;;;5.63;79.49;100972.44;104857;1258;138815;-70
2024/03/04 01:16:07;;;;;;;28.30;16.50;;;;;;;5.70;79.50;100974.11;105025;1258;74124;-69
2024/03/04 01:18:35;;;;;;;25.90;17.10;;;;;;;5.74;79.33;100975.18;104999;1256;138828;-69
2024/03/04 01:21:03;;;;;;;28.10;16.20;;;;;;;5.77;79.28;100978.11;105086;1254;70847;-70
2024/03/04 01:23:30;;;;;;;25.00;16.50;;;;;;;5.77;79.09;100978.51;105204;1258;61363;-69
2024/03/04 01:25:57;;;;;;;23.20;16.10;;;;;;;5.78;78.94;100982.36;109123;1254;138545;-70
2024/03/04 01:28:24;;;;;;;22.90;15.50;;;;;;;5.79;78.85;100981.55;109066;1254;74768;-70
2024/03/04 01:30:53;;;;;;;19.10;15.00;;;;;;;5.79;78.72;100979.47;109070;1253;137703;-70
2024/03/04 01:33:19;;;;;;;27.60;15.90;;;;;;;5.78;78.54;100980.45;107012;1254;72026;-70
2024/03/04 01:35:47;;;;;;;25.40;16.00;;;;;;;5.77;78.52;100979.86;104999;1256;61373;-71
2024/03/04 01:38:13;;;;;;;25.00;15.70;;;;;;;5.73;78.42;100977.79;105036;1256;138759;-71
2024/03/04 01:40:41;;;;;;;23.40;15.70;;;;;;;5.75;78.47;100981.17;105117;1256;72918;-71
2024/03/04 01:43:08;;;;;;;26.20;15.30;;;;;;;5.75;78.47;100977.84;105062;1256;138451;-72
2024/03/04 01:45:35;;;;;;;21.30;14.80;;;;;;;5.73;78.33;100976.73;104948;1256;73590;-71
2024/03/04 01:48:02;;;;;;;22.70;15.60;;;;;;;5.73;78.31;100978.46;104992;1258;139549;-69
2024/03/04 01:50:36;;;;;;;23.00;14.90;;;;;;;5.72;78.24;100983.45;105487;1257;61237;-67
2024/03/04 01:53:03;;;;;;;22.60;15.90;;;;;;;5.70;78.23;100981.95;105148;1256;74682;-68
2024/03/04 01:55:34;;;;;;;25.10;16.30;;;;;;;5.67;78.16;100982.36;105130;1256;138653;-70
2024/03/04 01:58:03;;;;;;;29.80;16.20;;;;;;;5.68;78.17;100984.11;104974;1254;73574;-70
2024/03/04 02:00:32;;;;;;;32.10;17.20;;;;;;;5.66;78.03;100983.89;104887;1260;138897;-70
2024/03/04 02:02:59;;;;;;;28.20;15.80;;;;;;;5.64;77.99;100985.34;105122;1254;61353;-71
2024/03/04 02:05:29;;;;;;;28.60;17.00;;;;;;;5.62;78.00;100986.31;105097;1256;75021;-71
2024/03/04 02:07:56;;;;;;;29.20;17.60;;;;;;;5.62;77.95;100986.27;105016;1254;137920;-71
2024/03/04 02:10:23;;;;;;;29.40;17.70;;;;;;;5.58;77.84;100991.84;104898;1260;71837;-71
2024/03/04 02:12:49;;;;;;;28.10;16.50;;;;;;;5.55;77.83;100994.83;104974;1253;138323;-70
2024/03/04 02:15:16;;;;;;;25.90;16.10;;;;;;;5.52;77.84;100989.80;105140;1254;61265;-70
2024/03/04 02:17:43;;;;;;;23.60;16.20;;;;;;;5.47;77.68;100993.55;104966;1260;75639;-69
2024/03/04 02:20:10;;;;;;;27.50;16.40;;;;;;;5.43;77.70;100995.31;104958;1258;138714;-69
2024/03/04 02:22:38;;;;;;;28.30;16.50;;;;;;;5.42;77.61;100998.56;105030;1254;71890;-69
2024/03/04 02:25:06;;;;;;;23.00;15.40;;;;;;;5.41;77.63;100997.81;104967;1256;138445;-70
2024/03/04 02:27:36;;;;;;;28.70;16.40;;;;;;;5.42;77.54;100999.75;105161;1254;61398;-70
2024/03/04 02:30:07;;;;;;;27.60;15.80;;;;;;;5.40;77.42;101002.11;105035;1256;138628;-69
2024/03/04 02:32:35;;;;;;;23.90;14.90;;;;;;;5.37;77.38;101002.84;105051;1258;66713;-70
2024/03/04 02:35:07;;;;;;;23.00;14.10;;;;;;;5.35;77.34;100999.23;105287;1255;73590;-70
2024/03/04 02:37:35;;;;;;;23.00;16.20;;;;;;;5.31;77.25;101004.63;104936;1256;138007;-69
2024/03/04 02:40:06;;;;;;;25.00;15.30;;;;;;;5.26;77.14;101006.30;104937;1255;61341;-69
2024/03/04 02:42:33;;;;;;;26.40;15.50;;;;;;;5.19;76.97;101008.01;104986;1254;138122;-69
2024/03/04 02:45:00;;;;;;;26.70;15.50;;;;;;;5.11;77.07;101007.58;105004;1255;65366;-69
2024/03/04 02:47:26;;;;;;;26.00;15.30;;;;;;;5.04;77.03;101007.08;105107;1258;73730;-69
2024/03/04 02:49:53;;;;;;;28.20;16.30;;;;;;;4.99;77.16;101008.00;104867;1256;138380;-69
2024/03/04 02:52:20;;;;;;;26.60;15.60;;;;;;;4.94;77.09;101007.06;105050;1256;61255;-69
2024/03/04 02:54:47;;;;;;;28.80;15.40;;;;;;;4.91;77.13;101007.10;105086;1258;138563;-69
2024/03/04 02:57:14;;;;;;;27.60;15.40;;;;;;;4.89;77.20;101009.77;105074;1258;66653;-70
2024/03/04 02:59:42;;;;;;;21.60;13.40;;;;;;;4.88;77.11;101010.45;105021;1255;72354;-69
2024/03/04 03:02:09;;;;;;;22.20;14.50;;;;;;;4.87;77.00;101009.14;104992;1256;138496;-69
2024/03/04 03:04:36;;;;;;;20.60;14.00;;;;;;;4.89;77.06;101010.98;105022;1256;61279;-69
2024/03/04 03:07:03;;;;;;;20.50;13.80;;;;;;;4.91;76.92;101008.46;104754;1254;138588;-69
2024/03/04 03:09:29;;;;;;;29.40;14.60;;;;;;;4.92;76.89;101010.45;105104;1254;64596;-68
2024/03/04 03:11:56;;;;;;;21.90;13.30;;;;;;;4.92;76.68;101012.14;104934;1256;137965;-67
2024/03/04 03:14:23;;;;;;;21.90;14.20;;;;;;;4.89;76.52;101014.81;105024;1256;61226;-70
2024/03/04 03:16:50;;;;;;;20.20;14.00;;;;;;;4.81;76.27;101014.77;105075;1258;61456;-70
2024/03/04 03:19:26;;;;;;;24.50;13.70;;;;;;;4.72;76.12;101025.93;104937;1256;137703;-69
2024/03/04 03:21:53;;;;;;;20.30;14.20;;;;;;;4.66;76.13;101024.56;104870;1260;66943;-69
2024/03/04 03:24:20;;;;;;;23.20;14.10;;;;;;;4.61;76.10;101027.80;104945;1258;138200;-69
2024/03/04 03:26:47;;;;;;;19.90;14.10;;;;;;;4.61;76.17;101032.47;104903;1255;61283;-70
2024/03/04 03:29:14;;;;;;;25.10;14.30;;;;;;;4.61;76.10;101035.05;104934;1256;61481;-73
2024/03/04 03:31:40;;;;;;;23.10;13.80;;;;;;;4.61;76.16;101034.06;104855;1256;138587;-73
2024/03/04 03:34:07;;;;;;;21.60;13.80;;;;;;;4.64;76.05;101036.95;104961;1259;66787;-62
2024/03/04 03:36:35;;;;;;;27.50;13.90;;;;;;;4.66;76.01;101037.94;104936;1254;138719;-68
2024/03/04 03:39:07;;;;;;;25.20;12.90;;;;;;;4.66;75.95;101037.96;105663;1258;61346;-67
2024/03/04 03:41:34;;;;;;;23.60;13.20;;;;;;;4.68;75.91;101039.78;104891;1258;61308;-67
2024/03/04 03:44:01;;;;;;;22.50;12.90;;;;;;;4.70;75.91;101038.50;104893;1256;138233;-67
2024/03/04 03:46:28;;;;;;;23.00;12.60;;;;;;;4.71;75.76;101037.48;105077;1256;66282;-67
2024/03/04 03:48:55;;;;;;;20.40;12.80;;;;;;;4.70;75.64;101038.87;104903;1256;137741;-68
2024/03/04 03:51:22;;;;;;;24.60;14.30;;;;;;;4.71;75.60;101040.48;105049;1256;61241;-68
2024/03/04 03:53:49;;;;;;;22.40;14.20;;;;;;;4.70;75.46;101043.55;104958;1261;61214;-68
2024/03/04 03:56:15;;;;;;;25.60;14.50;;;;;;;4.69;75.32;101044.35;104839;1258;137432;-68
2024/03/04 03:58:42;;;;;;;19.60;13.50;;;;;;;4.66;75.36;101043.55;105033;1256;65833;-69
2024/03/04 04:01:10;;;;;;;22.70;13.60;;;;;;;4.63;75.24;101047.01;104785;1258;138625;-67
2024/03/04 04:03:37;;;;;;;20.90;13.10;;;;;;;4.60;75.24;101048.61;104884;1261;61345;-67
2024/03/04 04:06:04;;;;;;;23.70;13.50;;;;;;;4.58;75.28;101049.16;109031;1254;138393;-68
2024/03/04 04:08:30;;;;;;;19.80;13.60;;;;;;;4.58;75.23;101050.74;109137;1256;74060;-67
2024/03/04 04:10:57;;;;;;;22.10;12.60;;;;;;;4.59;75.22;101056.02;105863;1254;66278;-67
2024/03/04 04:13:24;;;;;;;23.70;12.80;;;;;;;4.61;75.12;101055.41;104856;1256;138316;-64
2024/03/04 04:15:50;;;;;;;19.50;11.80;;;;;;;4.62;75.13;101058.59;105087;1254;61277;-64
2024/03/04 04:18:17;;;;;;;22.20;12.50;;;;;;;4.60;74.89;101060.21;104887;1257;138367;-65
2024/03/04 04:20:45;;;;;;;21.00;12.80;;;;;;;4.60;75.05;101061.64;104934;1256;74283;-64
2024/03/04 04:23:12;;;;;;;20.50;13.10;;;;;;;4.60;74.90;101065.27;109083;1255;66904;-64
2024/03/04 04:25:39;;;;;;;22.90;12.70;;;;;;;4.56;74.83;101064.52;106818;1257;138483;-68
2024/03/04 04:28:05;;;;;;;28.80;13.10;;;;;;;4.54;74.72;101065.80;105153;1258;61208;-68
2024/03/04 04:30:33;;;;;;;20.70;13.40;;;;;;;4.48;74.63;101071.55;104982;1257;138413;-68
2024/03/04 04:32:59;;;;;;;18.50;12.60;;;;;;;4.41;74.54;101074.13;105005;1254;73970;-68
2024/03/04 04:35:26;;;;;;;29.60;13.40;;;;;;;4.36;74.50;101076.27;104928;1256;64569;-68
2024/03/04 04:37:53;;;;;;;21.10;13.10;;;;;;;4.30;74.31;101081.02;105030;1256;138962;-68
2024/03/04 04:40:20;;;;;;;25.30;13.30;;;;;;;4.23;74.21;101080.13;105117;1259;61244;-69
2024/03/04 04:42:46;;;;;;;22.90;13.90;;;;;;;4.20;74.27;101087.38;105011;1255;137679;-68
2024/03/04 04:45:13;;;;;;;21.80;13.70;;;;;;;4.14;74.19;101090.00;105209;1257;75072;-68
2024/03/04 04:47:40;;;;;;;21.10;13.90;;;;;;;4.03;74.03;101091.49;105198;1257;66789;-68
2024/03/04 04:50:07;;;;;;;24.10;13.30;;;;;;;3.91;73.94;101091.13;104990;1259;137914;-68
2024/03/04 04:52:34;;;;;;;25.70;13.90;;;;;;;3.79;73.94;101092.23;104993;1258;61327;-68
2024/03/04 04:55:01;;;;;;;24.80;14.30;;;;;;;3.68;73.99;101095.74;104875;1258;137732;-69
2024/03/04 04:57:28;;;;;;;29.00;16.20;;;;;;;3.57;74.01;101103.45;105040;1256;73855;-69
2024/03/04 04:59:54;;;;;;;27.60;15.10;;;;;;;3.44;74.10;101100.76;104837;1256;138499;-69
2024/03/04 05:02:21;;;;;;;21.90;14.70;;;;;;;3.32;74.22;101102.27;105401;1254;71053;-69
2024/03/04 05:04:48;;;;;;;24.40;14.50;;;;;;;3.21;74.15;101102.88;105092;1261;61412;-67
2024/03/04 05:07:14;;;;;;;23.90;14.20;;;;;;;3.10;74.26;101103.41;104937;1258;139007;-67
2024/03/04 05:09:41;;;;;;;25.40;15.10;;;;;;;3.02;74.41;101106.20;105030;1258;74145;-67
2024/03/04 05:12:09;;;;;;;26.30;14.00;;;;;;;2.92;74.46;101111.16;105043;1254;138127;-67
2024/03/04 05:14:37;;;;;;;25.40;14.10;;;;;;;2.84;74.48;101116.73;107551;1254;72170;-67
2024/03/04 05:17:04;;;;;;;23.80;14.20;;;;;;;2.76;74.59;101119.34;107575;1254;61438;-67
2024/03/04 05:19:37;;;;;;;30.20;15.70;;;;;;;2.68;74.63;101120.09;109140;1254;138093;-67
2024/03/04 05:22:06;;;;;;;26.70;14.90;;;;;;;2.61;74.62;101120.48;105503;1258;72828;-68
2024/03/04 05:24:33;;;;;;;30.10;16.40;;;;;;;2.52;74.78;101125.31;106230;1256;137858;-68
2024/03/04 05:27:00;;;;;;;28.50;14.90;;;;;;;2.45;74.86;101126.60;104981;1256;72994;-68
2024/03/04 05:29:26;;;;;;;27.70;14.90;;;;;;;2.39;75.01;101126.05;104948;1258;61363;-68
2024/03/04 05:31:56;;;;;;;27.40;14.90;;;;;;;2.34;75.04;101125.19;105030;1254;138473;-68
2024/03/04 05:34:24;;;;;;;31.60;13.60;;;;;;;2.29;75.15;101122.63;107490;1256;72683;-69
2024/03/04 05:36:51;;;;;;;29.30;13.50;;;;;;;2.27;75.14;101124.21;104689;1256;138340;-68
2024/03/04 05:39:21;;;;;;;25.10;14.70;;;;;;;2.24;75.31;101126.65;104603;1258;71434;-68
2024/03/04 05:41:51;;;;;;;32.50;14.40;;;;;;;2.22;75.38;101127.04;104926;1254;61385;-69
2024/03/04 05:44:20;;;;;;;25.10;15.20;;;;;;;2.22;75.47;101129.83;104956;1258;61235;-59
2024/03/04 05:46:46;;;;;;;25.80;14.20;;;;;;;2.23;75.64;101132.95;104970;1257;75673;-61
2024/03/04 05:49:13;;;;;;;26.20;14.80;;;;;;;2.24;75.74;101136.85;104869;1258;137795;-60
2024/03/04 05:51:40;;;;;;;27.40;15.40;;;;;;;2.26;75.67;101142.05;104907;1254;73829;-64
2024/03/04 05:54:07;;;;;;;22.70;14.60;;;;;;;2.27;75.74;101142.06;104851;1258;138126;-67
2024/03/04 05:56:44;;;;;;;25.40;15.70;;;;;;;2.28;75.84;101145.06;105005;1259;61280;-67
2024/03/04 05:59:10;;;;;;;38.90;21.90;;;;;;;2.29;75.93;101146.73;109189;1258;75285;-66
2024/03/04 06:01:37;;;;;;;28.90;17.80;;;;;;;2.30;75.78;101149.21;109036;1254;137853;-65
2024/03/04 06:04:04;;;;;;;29.40;17.90;;;;;;;2.31;75.87;101152.77;109106;1256;71580;-65
2024/03/04 06:06:32;;;;;;;32.30;16.70;;;;;;;2.33;75.88;101150.28;108929;1254;138618;-63
2024/03/04 06:09:02;;;;;;;26.70;16.00;;;;;;;2.37;76.01;101149.81;108927;1254;59412;-64
2024/03/04 06:11:29;;;;;;;22.90;15.20;;;;;;;2.43;76.07;101153.48;109082;1255;74055;-64
2024/03/04 06:13:56;;;;;;;29.90;16.10;;;;;;;2.48;76.07;101152.75;108990;1256;138182;-66
2024/03/04 06:16:22;;;;;;;26.50;15.60;;;;;;;2.54;76.01;101154.36;109097;1258;72704;-64
2024/03/04 06:18:49;;;;;;;27.10;15.50;;;;;;;2.60;76.02;101157.34;108787;1254;139102;-64
2024/03/04 06:21:16;;;;;;;22.10;15.00;;;;;;;2.65;76.01;101159.23;109108;1254;59266;-68
2024/03/04 06:23:42;;;;;;;22.80;14.80;;;;;;;2.70;76.08;101162.65;109013;1258;73119;-66
2024/03/04 06:26:11;;;;;;;28.70;14.60;;;;;;;2.75;76.07;101163.31;108845;1254;138711;-66
2024/03/04 06:28:38;;;;;;;26.40;14.70;;;;;;;2.81;76.11;101164.52;108957;1256;75262;-68
2024/03/04 06:31:05;;;;;;;24.20;14.50;;;;;;;2.85;76.13;101165.33;109135;1254;138560;-67
2024/03/04 06:33:32;;;;;;;26.00;15.70;;;;;;;2.92;76.12;101170.92;109208;1257;59860;-67
2024/03/04 06:36:00;;;;;;;26.00;14.90;;;;;;;2.98;76.08;101176.37;108990;1255;138530;-66
2024/03/04 06:38:27;;;;;;;29.80;15.40;;;;;;;3.04;75.99;101174.83;109052;1255;64458;-66
2024/03/04 06:40:54;;;;;;;24.40;15.70;;;;;;;3.11;76.07;101177.70;106996;1255;73354;-66
2024/03/04 06:43:20;;;;;;;26.90;14.60;;;;;;;3.15;75.89;101180.89;104674;1256;138210;-67
2024/03/04 06:45:47;;;;;;;28.50;15.40;;;;;;;3.19;75.78;101183.34;104953;1256;61281;-67
2024/03/04 06:48:14;;;;;;;25.30;14.50;;;;;;;3.22;75.90;101184.45;104724;1258;138646;-66
2024/03/04 06:50:40;;;;;;;26.60;14.30;;;;;;;3.25;75.74;101179.92;104918;1259;66742;-67
2024/03/04 06:53:09;;;;;;;33.40;15.10;;;;;;;3.27;75.69;101181.59;104897;1256;71971;-67
2024/03/04 06:55:35;;;;;;;28.90;15.20;;;;;;;3.30;75.63;101180.40;104807;1258;138754;-66
2024/03/04 06:58:03;;;;;;;21.80;14.70;;;;;;;3.33;75.60;101178.86;104933;1258;61353;-66
2024/03/04 07:00:30;;;;;;;25.60;15.30;;;;;;;3.33;75.60;101180.07;108919;1256;138278;-67
2024/03/04 07:02:56;;;;;;;27.40;14.90;;;;;;;3.33;75.59;101184.42;109072;1253;66951;-67
2024/03/04 07:05:23;;;;;;;28.00;14.50;;;;;;;3.37;75.60;101182.73;109212;1256;71244;-67
2024/03/04 07:07:50;;;;;;;24.60;15.20;;;;;;;3.43;75.72;101184.85;108953;1255;138236;-67
2024/03/04 07:10:17;;;;;;;24.40;15.00;;;;;;;3.48;75.49;101187.91;109057;1257;60293;-67
2024/03/04 07:12:43;;;;;;;26.90;14.50;;;;;;;3.51;75.59;101185.84;109024;1254;137754;-67
2024/03/04 07:15:10;;;;;;;25.90;14.60;;;;;;;3.53;75.57;101186.50;109063;1255;63968;-66
2024/03/04 07:17:37;;;;;;;27.70;14.80;;;;;;;3.55;75.55;101186.23;108980;1260;71877;-66
2024/03/04 07:20:09;;;;;;;27.30;14.90;;;;;;;3.61;75.66;101185.39;109040;1257;138760;-66
2024/03/04 07:22:36;;;;;;;31.80;15.00;;;;;;;3.67;75.47;101191.16;109046;1256;58896;-66
2024/03/04 07:25:03;;;;;;;26.30;15.30;;;;;;;3.71;75.48;101189.10;109115;1254;138819;-66
2024/03/04 07:27:30;;;;;;;31.90;14.90;;;;;;;3.78;75.55;101187.79;109101;1256;67071;-66
2024/03/04 07:29:57;;;;;;;31.90;15.60;;;;;;;3.88;75.58;101189.97;108995;1255;138528;-66
2024/03/04 07:32:23;;;;;;;25.30;14.90;;;;;;;3.95;75.43;101194.89;109003;1259;59029;-59
2024/03/04 07:34:50;;;;;;;25.50;13.50;;;;;;;4.01;75.26;101200.80;106747;1257;60220;-59
2024/03/04 07:37:17;;;;;;;23.50;14.20;;;;;;;4.06;75.21;101204.88;104964;1258;138283;-66
2024/03/04 07:39:44;;;;;;;25.80;13.10;;;;;;;4.13;75.19;101209.13;105035;1258;65222;-65
2024/03/04 07:42:10;;;;;;;25.90;15.90;;;;;;;4.17;75.00;101211.74;104932;1260;138113;-66
2024/03/04 07:44:39;;;;;;;27.70;14.00;;;;;;;4.14;74.82;101212.27;104869;1260;61237;-65
2024/03/04 07:47:06;;;;;;;23.30;14.70;;;;;;;4.14;74.80;101208.13;109247;1257;59169;-66
2024/03/04 07:49:32;;;;;;;28.50;15.10;;;;;;;4.15;74.74;101214.59;108926;1256;138617;-66
2024/03/04 07:51:59;;;;;;;27.10;13.30;;;;;;;4.20;74.93;101217.49;109078;1255;64861;-59
2024/03/04 07:54:26;;;;;;;21.80;14.30;;;;;;;4.20;74.74;101212.64;109023;1256;138197;-60
2024/03/04 07:56:52;;;;;;;24.40;15.00;;;;;;;4.25;74.75;101211.38;108987;1255;58900;-60
2024/03/04 07:59:20;;;;;;;25.00;14.40;;;;;;;4.32;74.84;101213.83;109103;1255;60241;-60
2024/03/04 08:01:49;;;;;;;29.60;15.30;;;;;;;4.37;74.73;101213.11;109120;1257;138171;-60
2024/03/04 08:04:16;;;;;;;22.40;14.90;;;;;;;4.42;74.77;101209.20;109015;1255;67493;-60
2024/03/04 08:06:43;;;;;;;26.20;14.60;;;;;;;4.47;74.84;101203.62;108985;1256;138623;-60
2024/03/04 08:09:14;;;;;;;24.50;14.70;;;;;;;4.54;74.65;101197.00;109111;1254;59113;-60
2024/03/04 08:11:41;;;;;;;23.10;13.40;;;;;;;4.54;74.45;101197.59;109147;1256;59449;-60
2024/03/04 08:14:07;;;;;;;27.50;14.90;;;;;;;4.57;74.42;101197.89;108990;1256;138723;-60
2024/03/04 08:16:34;;;;;;;22.10;13.70;;;;;;;4.62;74.47;101201.81;108919;1256;245435;-60
2024/03/04 08:19:01;;;;;;;27.10;13.70;;;;;;;4.67;74.35;101202.30;109028;1255;138737;-61
2024/03/04 08:21:27;;;;;;;23.90;14.60;;;;;;;4.64;74.16;101204.70;109157;1258;59215;-60
2024/03/04 08:23:54;;;;;;;28.10;14.90;;;;;;;4.65;74.23;101204.27;109001;1258;137699;-61
2024/03/04 08:26:21;;;;;;;21.40;13.60;;;;;;;4.72;74.35;101204.27;109102;1254;75271;-60
2024/03/04 08:28:48;;;;;;;19.20;13.60;;;;;;;4.81;74.51;101205.87;108609;1258;65754;-60
2024/03/04 08:31:18;;;;;;;29.10;15.80;;;;;;;4.95;74.44;101205.38;104880;1261;138371;-60
2024/03/04 08:33:45;;;;;;;26.80;14.00;;;;;;;5.04;74.37;101204.15;104924;1260;61298;-59
2024/03/04 08:36:12;;;;;;;28.10;13.90;;;;;;;5.12;74.21;101199.14;104878;1258;138714;-59
2024/03/04 08:38:38;;;;;;;25.10;13.20;;;;;;;5.18;74.11;101199.00;105122;1256;76279;-59
2024/03/04 08:41:05;;;;;;;25.90;13.70;;;;;;;5.18;73.85;101195.52;105001;1262;65499;-59
2024/03/04 08:43:32;;;;;;;25.10;14.50;;;;;;;5.23;73.97;101192.30;105010;1267;138125;-59
2024/03/04 08:45:59;;;;;;;24.00;12.70;;;;;;;5.30;73.93;101186.40;104963;1256;61346;-60
2024/03/04 08:48:26;;;;;;;22.30;14.20;;;;;;;5.34;73.70;101189.19;104877;1261;138009;-60
2024/03/04 08:50:53;;;;;;;22.40;13.90;;;;;;;5.34;73.90;101189.58;104926;1258;74280;-59
2024/03/04 08:53:20;;;;;;;26.50;14.10;;;;;;;5.37;73.66;101186.23;105048;1254;65515;-60
2024/03/04 08:55:46;;;;;;;27.70;14.00;;;;;;;5.30;73.47;101195.07;104887;1261;138636;-60
2024/03/04 08:58:13;;;;;;;20.40;13.40;;;;;;;5.29;73.49;101201.32;105007;1258;61349;-60
2024/03/04 09:00:40;;;;;;;24.70;13.10;;;;;;;5.36;73.73;101194.71;104987;1260;138483;-60
2024/03/04 09:03:07;;;;;;;21.80;12.30;;;;;;;5.49;73.73;101197.28;104929;1257;73605;-59
2024/03/04 09:05:34;;;;;;;18.60;12.50;;;;;;;5.59;73.67;101200.79;109052;1257;66955;-60
2024/03/04 09:08:04;;;;;;;19.60;12.90;;;;;;;5.66;73.56;101200.48;108931;1254;137547;-60
2024/03/04 09:10:30;;;;;;;25.40;12.90;;;;;;;5.70;73.29;101201.71;109221;1257;59144;-59
2024/03/04 09:12:58;;;;;;;20.30;14.10;;;;;;;5.68;73.09;101201.77;109071;1254;138228;-59
2024/03/04 09:15:24;;;;;;;18.60;12.20;;;;;;;5.65;73.02;101202.16;109071;1256;73393;-59
2024/03/04 09:17:51;;;;;;;19.10;12.30;;;;;;;5.58;72.86;101197.98;109072;1254;66911;-60
2024/03/04 09:20:18;;;;;;;22.80;13.40;;;;;;;5.55;72.88;101198.14;109078;1254;73072;-60
2024/03/04 09:22:45;;;;;;;20.00;12.20;;;;;;;5.64;73.13;101205.42;109084;1254;59247;-60
2024/03/04 09:25:12;;;;;;;21.10;12.00;;;;;;;5.84;73.28;101203.11;108988;1260;138484;-60
2024/03/04 09:27:42;;;;;;;21.40;11.90;;;;;;;6.10;73.39;101202.91;109072;1254;73615;-60
2024/03/04 09:30:09;;;;;;;22.40;12.90;;;;;;;6.41;73.28;101205.15;108962;1258;138857;-60
2024/03/04 09:32:36;;;;;;;18.20;12.00;;;;;;;6.65;73.12;101207.54;109002;1254;72471;-60
2024/03/04 09:35:04;;;;;;;21.90;12.40;;;;;;;6.89;72.82;101211.63;109134;1256;58989;-60
2024/03/04 09:37:31;;;;;;;21.30;12.30;;;;;;;7.11;72.65;101210.38;109017;1255;138316;-60
2024/03/04 09:39:58;;;;;;;19.90;11.70;;;;;;;7.31;72.35;101201.17;109261;1253;73872;-60
2024/03/04 09:42:29;;;;;;;19.50;11.80;;;;;;;7.41;71.82;101200.40;108979;1254;138363;-67
2024/03/04 09:44:57;;;;;;;19.20;12.50;;;;;;;7.38;71.42;101201.69;109061;1254;71800;-67
2024/03/04 09:47:24;;;;;;;20.10;11.30;;;;;;;7.38;71.04;101204.98;109053;1254;59392;-67
2024/03/04 09:49:52;;;;;;;22.20;12.00;;;;;;;7.26;70.73;101208.65;108921;1260;138051;-67
2024/03/04 09:52:20;;;;;;;17.40;12.20;;;;;;;7.20;70.83;101211.70;109148;1254;75276;-67
2024/03/04 09:54:47;;;;;;;18.60;11.70;;;;;;;7.08;70.49;101214.45;108994;1254;137718;-67
2024/03/04 09:57:13;;;;;;;22.70;12.00;;;;;;;6.92;70.72;101209.52;109137;1254;72800;-68
2024/03/04 09:59:40;;;;;;;20.70;12.60;;;;;;;6.90;70.84;101213.77;107213;1259;60497;-67
2024/03/04 10:02:10;;;;;;;21.00;12.70;;;;;;;6.91;70.82;101204.91;104922;1267;137808;-68
2024/03/04 10:04:40;;;;;;;16.60;12.40;;;;;;;6.92;70.73;101203.75;105042;1254;75121;-67
2024/03/04 10:07:08;;;;;;;15.80;10.90;;;;;;;6.82;70.51;101206.92;104842;1254;138023;-66
2024/03/04 10:09:35;;;;;;;24.40;11.80;;;;;;;6.70;70.56;101207.08;104888;1261;73306;-67
2024/03/04 10:12:07;;;;;;;23.70;12.30;;;;;;;6.71;70.80;101207.27;104959;1254;138589;-66
2024/03/04 10:14:59;;;;;;;20.80;12.80;;;;;;;6.91;71.39;101205.61;104906;1257;61431;-65
2024/03/04 10:17:27;;;;;;;20.80;11.80;;;;;;;7.13;71.05;101205.25;107494;1258;77237;-66
2024/03/04 10:20:00;;;;;;;21.10;11.30;;;;;;;7.16;71.07;101204.14;108974;1254;138014;-67
2024/03/04 10:22:34;;;;;;;;;;;;;;;7.25;71.10;101204.73;109000;1254;72326;-66
2024/03/04 10:25:10;;;;;;;19.40;10.90;;;;;;;7.31;71.00;101205.67;108980;1258;123898;-66
2024/03/04 10:27:48;;;;;;;21.90;11.60;;;;;;;7.28;70.43;101210.83;109113;1257;60375;-66
2024/03/04 10:30:26;;;;;;;20.40;11.30;;;;;;;7.06;69.99;101212.62;108885;1257;138162;-66
2024/03/04 10:33:00;;;;;;;16.60;11.80;;;;;;;6.86;70.05;101214.27;109181;1256;67624;-67
2024/03/04 10:35:27;;;;;;;21.80;10.80;;;;;;;6.91;70.47;101211.73;109072;1254;73557;-67
2024/03/04 10:38:02;;;;;;;19.10;10.80;;;;;;;7.00;70.57;101207.77;109088;1253;137826;-67
2024/03/04 10:40:31;;;;;;;18.20;10.90;;;;;;;6.95;70.27;101207.70;108856;1254;60009;-66
2024/03/04 10:43:00;;;;;;;16.50;11.60;;;;;;;6.81;70.13;101208.10;109015;1257;137735;-66
2024/03/04 10:45:31;;;;;;;23.30;11.80;;;;;;;6.73;70.21;101207.75;109088;1255;66352;-67
2024/03/04 10:48:01;;;;;;;16.30;10.40;;;;;;;6.74;70.33;101205.89;108995;1254;137871;-65
2024/03/04 10:50:28;;;;;;;20.60;11.40;;;;;;;6.71;70.23;101206.95;109137;1257;59150;-66
2024/03/04 10:52:55;;;;;;;20.50;12.30;;;;;;;6.68;70.33;101203.46;105307;1254;61379;-66
2024/03/04 10:55:22;;;;;;;18.80;11.10;;;;;;;6.74;70.62;101206.73;104847;1255;138286;-66
2024/03/04 10:57:52;;;;;;;17.50;10.40;;;;;;;6.84;70.55;101210.14;109031;1254;67824;-66
2024/03/04 11:00:26;;;;;;;15.80;10.10;;;;;;;6.81;70.40;101212.49;108776;1262;137952;-66
2024/03/04 11:02:59;;;;;;;19.50;11.20;;;;;;;6.81;70.38;101212.66;108923;1254;59035;-66
2024/03/04 11:05:27;;;;;;;22.80;11.70;;;;;;;6.92;70.63;101210.55;109074;1254;60287;-66
2024/03/04 11:08:00;;;;;;;19.90;9.80;;;;;;;7.08;70.53;101214.23;109026;1254;138274;-66